Latest Weather Observations for Bairnsdale

IDV60801

Issued at 7:32 am EST Saturday 22 September 2018 (issued every 10 minutes, with the page automatically refreshed every 10 minutes)

About weather observations | Map of weather stations | Latest weather observations for VIC | Other Formats
Station Details ID: 085279 Name: BAIRNSDALE AIRPORT Lat: -37.88 Lon: 147.57 Height: 49.4 m
Data from the previous 72 hours. | See also: Recent months at Bairnsdale
Date/Time
EST
Temp
°C
App
Temp
°C
Dew
Point
°C
Rel
Hum
%
Delta-T
°C
Wind Press
QNH
hPa
Press
MSL
hPa
Rain since
9am
mm
Dir  Spd
km/h
Gust
km/h
Spd
kts
Gust
kts
22/07:30am 7.4 4.9 6.7 95 0.3 NW 9 11 5 6 1026.3 1026.4 0.0
22/07:00am 5.8 2.6 5.2 96 0.3 NW 11 13 6 7 1026.2 1026.3 0.0
22/06:30am 4.4 0.6 3.8 96 0.3 NNW 13 13 7 7 1026.0 1026.1 0.0
22/06:00am 2.3 -0.8 1.6 95 0.3 NW 7 9 4 5 1025.9 1026.0 0.0
22/05:30am 2.8 0.0 2.1 95 0.3 NNW 6 7 3 4 1025.7 1025.8 0.0
22/05:00am 4.3 1.2 3.7 96 0.2 NNW 9 11 5 6 1025.7 1025.8 0.0
22/04:30am 3.7 0.1 3.0 95 0.3 NW 11 15 6 8 1025.6 1025.7 0.0
22/04:00am 4.3 0.8 3.6 95 0.3 NW 11 13 6 7 1025.6 1025.7 0.0
22/03:30am 3.4 0.1 2.5 94 0.4 NW 9 13 5 7 1025.5 1025.6 0.0
22/03:00am 4.0 0.8 3.1 94 0.4 NW 9 11 5 6 1025.7 1025.8 0.0
22/02:30am 3.5 0.5 2.3 92 0.5 NW 7 9 4 5 1025.8 1025.9 0.0
22/02:00am 5.3 1.9 4.1 92 0.5 NNW 11 11 6 6 1026.2 1026.3 0.0
22/01:30am 6.1 3.3 5.1 93 0.4 NNW 9 11 5 6 1026.6 1026.7 0.0
22/01:00am 5.7 3.2 4.5 92 0.5 NW 7 11 4 6 1026.8 1026.9 0.0
22/12:30am 5.7 2.7 4.3 91 0.6 NW 9 11 5 6 1027.0 1027.1 0.0
22/12:00am 5.6 2.6 3.9 89 0.7 NW 9 11 5 6 1026.9 1027.0 0.0
 
Date/Time
EST
Temp
°C
App
Temp
°C
Dew
Point
°C
Rel
Hum
%
Delta-T
°C
Wind Press
QNH
hPa
Press
MSL
hPa
Rain since
9am
mm
Dir  Spd
km/h
Gust
km/h
Spd
kts
Gust
kts
21/11:30pm 6.8 4.3 4.6 86 1.0 NNW 7 9 4 5 1027.0 1027.1 0.0
21/11:00pm 8.7 6.0 5.8 82 1.3 N 9 11 5 6 1027.1 1027.2 0.0
21/10:30pm 9.5 6.6 6.4 81 1.4 NNE 11 11 6 6 1027.3 1027.4 0.0
21/10:00pm 8.8 6.8 6.9 88 0.9 N 7 7 4 4 1027.4 1027.5 0.0
21/09:30pm 8.0 5.9 5.8 86 1.0 NNE 6 7 3 4 1027.3 1027.4 0.0
21/09:00pm 9.8 7.6 6.3 79 1.6 NE 7 9 4 5 1027.4 1027.5 0.0
21/08:30pm 10.0 7.4 6.3 78 1.7 NE 9 11 5 6 1027.3 1027.4 0.0
21/08:00pm 10.4 8.0 7.1 80 1.6 NE 9 11 5 6 1027.0 1027.1 0.0
21/07:30pm 10.7 8.4 7.4 80 1.6 NE 9 11 5 6 1026.7 1026.8 0.0
21/07:00pm 11.1 8.4 7.4 78 1.8 NE 11 13 6 7 1026.4 1026.5 0.0
21/06:30pm 11.9 8.8 7.2 73 2.3 ENE 13 15 7 8 1025.9 1026.0 0.0
21/06:00pm 13.1 10.0 7.3 68 2.8 E 13 15 7 8 1025.6 1025.7 0.0
21/05:30pm 14.2 10.7 7.3 63 3.4 SE 15 19 8 10 1025.2 1025.3 0.0
21/05:00pm 15.1 11.2 7.2 59 3.9 SE 17 20 9 11 1024.9 1025.0 0.0
21/04:30pm 15.4 11.5 6.9 57 4.2 SSE 17 22 9 12 1024.6 1024.7 0.0
21/04:00pm 15.8 11.3 7.1 56 4.3 SSE 20 24 11 13 1024.3 1024.4 0.0
21/03:30pm 16.1 11.2 7.1 55 4.5 SSE 22 30 12 16 1024.0 1024.1 0.0
21/03:00pm 16.8 12.5 8.0 56 4.4 SE 20 28 11 15 1023.9 1024.0 0.0
21/02:30pm 16.8 11.7 7.7 55 4.6 SE 24 32 13 17 1023.9 1024.0 0.0
21/02:00pm 18.8 14.1 7.6 48 5.7 S 22 33 12 18 1024.0 1024.1 0.0
21/01:30pm 18.7 14.3 7.5 48 5.7 S 20 30 11 16 1024.1 1024.2 0.0
21/01:00pm 18.6 15.2 5.8 43 6.3 SE 13 19 7 10 1024.3 1024.4 0.0
21/12:30pm 18.1 15.4 5.7 44 6.1 ESE 9 15 5 8 1024.6 1024.7 0.0
21/12:25pm 18.1 15.9 6.0 45 6.0 SE 7 13 4 7 1024.7 1024.8 0.0
21/12:07pm 17.8 15.2 6.3 47 5.7 SSE 9 17 5 9 1024.9 1025.0 0.0
21/12:00pm 17.2 14.2 5.8 47 5.5 SSE 11 17 6 9 1025.0 1025.1 0.0
21/11:30am 17.4 15.1 5.0 44 5.9 ENE 6 11 3 6 1025.5 1025.6 0.0
21/11:00am 16.9 14.6 5.5 47 5.5 WSW 7 13 4 7 1025.8 1025.9 0.0
21/10:30am 16.3 14.1 6.2 51 4.9 SW 7 13 4 7 1026.0 1026.1 0.0
21/10:00am 15.8 13.2 6.3 53 4.6 W 9 17 5 9 1026.1 1026.2 0.0
21/09:30am 14.0 10.4 5.1 55 4.2 W 13 20 7 11 1026.4 1026.5 0.0
21/09:00am 13.4 10.6 5.1 57 3.8 NW 9 15 5 8 1026.5 1026.6 0.0
21/08:30am 11.3 7.9 4.1 61 3.2 NW 11 13 6 7 1026.6 1026.7 0.0
21/08:00am 9.6 5.7 3.4 65 2.7 NW 13 15 7 8 1026.6 1026.7 0.0
21/07:30am 7.7 3.8 3.2 73 1.9 NW 13 15 7 8 1026.3 1026.4 0.0
21/07:00am 6.0 1.9 2.3 77 1.5 NW 13 17 7 9 1025.9 1026.0 0.0
21/06:30am 4.8 0.6 1.8 81 1.2 NW 13 19 7 10 1025.6 1025.7 0.0
21/06:00am 3.5 -0.8 1.1 84 0.9 NW 13 17 7 9 1025.3 1025.4 0.0
21/05:30am 3.6 -0.3 1.2 84 0.9 NNW 11 13 6 7 1025.0 1025.1 0.0
21/05:00am 3.4 -0.2 0.3 80 1.2 NNW 9 11 5 6 1024.8 1024.9 0.0
21/04:30am 4.5 1.4 1.4 80 1.2 W 7 9 4 5 1024.4 1024.5 0.0
21/04:00am 4.0 0.7 0.3 77 1.4 WSW 7 11 4 6 1024.2 1024.3 0.0
21/03:30am 6.5 3.5 2.0 73 1.8 WSW 7 11 4 6 1024.0 1024.1 0.0
21/03:00am 6.4 2.3 2.1 74 1.7 WNW 13 17 7 9 1023.8 1023.9 0.0
21/02:30am 6.5 2.0 2.0 73 1.8 NW 15 19 8 10 1023.9 1024.0 0.0
21/02:00am 7.3 2.8 2.2 70 2.1 WNW 15 20 8 11 1024.1 1024.2 0.0
21/01:30am 6.6 2.1 2.1 73 1.8 NW 15 17 8 9 1024.2 1024.3 0.0
21/01:00am 6.4 1.9 2.1 74 1.7 WNW 15 17 8 9 1024.1 1024.2 0.0
21/12:30am 5.7 1.5 1.8 76 1.6 NW 13 17 7 9 1024.0 1024.1 0.0
21/12:00am 6.8 2.3 2.3 73 1.8 WNW 15 17 8 9 1023.9 1024.0 0.0
 
Date/Time
EST
Temp
°C
App
Temp
°C
Dew
Point
°C
Rel
Hum
%
Delta-T
°C
Wind Press
QNH
hPa
Press
MSL
hPa
Rain since
9am
mm
Dir  Spd
km/h
Gust
km/h
Spd
kts
Gust
kts
20/11:30pm 5.7 1.2 2.0 77 1.5 NW 15 17 8 9 1023.8 1023.9 0.0
20/11:00pm 4.9 0.7 1.4 78 1.4 NW 13 13 7 7 1023.9 1024.0 0.0
20/10:30pm 5.3 1.1 1.8 78 1.4 NW 13 17 7 9 1024.0 1024.1 0.0
20/10:00pm 6.2 2.5 2.1 75 1.7 NW 11 15 6 8 1023.9 1024.0 0.0
20/09:30pm 6.1 2.8 2.7 79 1.4 NW 9 13 5 7 1023.9 1024.0 0.0
20/09:00pm 7.6 5.1 4.9 83 1.2 NNW 7 9 4 5 1023.6 1023.7 0.0
20/08:30pm 7.6 5.1 4.7 82 1.3 N 7 9 4 5 1023.3 1023.4 0.0
20/08:00pm 9.4 6.7 5.8 78 1.6 NNE 9 13 5 7 1022.9 1023.0 0.0
20/07:30pm 9.8 7.5 5.8 76 1.8 NNE 7 13 4 7 1022.6 1022.7 0.0
20/07:00pm 10.5 7.6 4.6 67 2.6 NE 9 9 5 5 1022.1 1022.2 0.0
20/06:30pm 11.4 8.6 2.2 53 4.0 WSW 6 7 3 4 1021.7 1021.8 0.0
20/06:00pm 12.5 8.8 2.1 49 4.5 SW 11 15 6 8 1021.5 1021.5 0.0
20/05:30pm 14.0 8.5 2.0 44 5.3 SW 20 28 11 15 1021.1 1021.1 0.0
20/05:00pm 15.0 9.1 1.9 41 5.8 SW 22 32 12 17 1020.7 1020.7 0.0
20/04:30pm 15.6 8.6 1.7 39 6.1 SW 28 43 15 23 1020.5 1020.5 0.0
20/04:00pm 16.1 9.3 1.0 36 6.6 SW 26 35 14 19 1020.2 1020.2 0.0
20/03:30pm 16.2 9.5 1.5 37 6.5 SW 26 37 14 20 1020.0 1020.0 0.0
20/03:00pm 16.8 10.1 1.3 35 6.8 SW 26 37 14 20 1020.0 1020.0 0.0
20/02:30pm 16.7 9.6 1.2 35 6.8 SW 28 37 15 20 1020.0 1020.0 0.0
20/02:00pm 16.5 9.5 1.8 37 6.5 SW 28 39 15 21 1020.1 1020.1 0.0
20/01:30pm 15.7 8.2 1.4 38 6.3 WSW 30 43 16 23 1020.3 1020.3 0.0
20/01:00pm 15.4 8.3 1.5 39 6.1 WSW 28 37 15 20 1020.4 1020.4 0.0
20/12:30pm 16.6 10.2 0.7 34 6.9 WSW 24 37 13 20 1020.4 1020.4 0.0
20/12:00pm 15.3 9.8 0.7 37 6.3 WSW 19 30 10 16 1020.3 1020.3 0.0
20/11:30am 14.9 9.0 1.8 41 5.8 WSW 22 28 12 15 1020.3 1020.3 0.0
20/11:00am 15.2 9.4 2.1 41 5.8 W 22 33 12 18 1020.2 1020.2 0.0
20/10:30am 14.5 9.1 2.7 45 5.3 WSW 20 32 11 17 1020.2 1020.2 0.0
20/10:00am 13.4 8.0 2.3 47 4.8 W 20 32 11 17 1020.3 1020.3 0.0
20/09:30am 13.1 7.4 2.9 50 4.5 W 22 30 12 16 1020.4 1020.4 0.0
20/09:00am 11.6 7.3 3.1 56 3.7 WNW 15 20 8 11 1020.3 1020.3 0.0
20/08:30am 10.0 5.4 3.5 64 2.8 NW 17 20 9 11 1020.3 1020.3 0.0
20/08:00am 7.9 3.1 2.6 69 2.2 NW 17 24 9 13 1020.0 1020.0 0.0
20/07:30am 5.9 1.4 2.4 78 1.4 NW 15 20 8 11 1019.7 1019.7 0.0
20/07:00am 4.1 -0.2 1.1 81 1.2 NW 13 17 7 9 1019.3 1019.3 0.0
20/06:30am 3.1 -1.6 0.7 84 0.9 NW 15 19 8 10 1018.9 1018.9 0.0
20/06:00am 3.3 -1.1 0.5 82 1.1 WNW 13 17 7 9 1018.6 1018.6 0.0
20/05:30am 3.5 -1.2 0.9 83 1.0 W 15 20 8 11 1018.2 1018.2 0.0
20/05:00am 3.2 -1.5 0.9 85 0.9 WNW 15 19 8 10 1018.0 1018.0 0.0
20/04:30am 3.2 -1.5 1.1 86 0.8 NW 15 17 8 9 1017.7 1017.7 0.0
20/04:00am 3.2 -1.5 1.1 86 0.8 NW 15 19 8 10 1017.6 1017.6 0.0
20/03:30am 3.5 -1.5 1.4 86 0.8 NW 17 19 9 10 1017.6 1017.6 0.0
20/03:00am 3.7 -1.3 1.6 86 0.8 NW 17 20 9 11 1017.7 1017.7 0.0
20/02:30am 3.8 -0.8 1.7 86 0.8 WNW 15 19 8 10 1017.7 1017.7 0.0
20/02:00am 3.7 -0.9 1.6 86 0.8 WNW 15 17 8 9 1017.8 1017.8 0.0
20/01:30am 3.8 -0.8 1.7 86 0.8 WNW 15 17 8 9 1018.0 1018.0 0.0
20/01:00am 4.1 -0.3 2.6 90 0.6 NW 15 19 8 10 1018.1 1018.1 0.0
20/12:30am 2.4 -1.6 0.8 89 0.6 NW 11 13 6 7 1017.9 1017.9 0.0
20/12:00am 3.6 -0.7 1.3 85 0.9 NW 13 15 7 8 1017.8 1017.8 0.0
 
Date/Time
EST
Temp
°C
App
Temp
°C
Dew
Point
°C
Rel
Hum
%
Delta-T
°C
Wind Press
QNH
hPa
Press
MSL
hPa
Rain since
9am
mm
Dir  Spd
km/h
Gust
km/h
Spd
kts
Gust
kts
19/11:30pm 5.9 1.5 2.9 81 1.2 W 15 19 8 10 1017.7 1017.7 0.0
19/11:00pm 5.1 1.0 2.1 81 1.2 WNW 13 17 7 9 1017.7 1017.7 0.0
19/10:30pm 4.7 0.6 2.1 83 1.0 NW 13 17 7 9 1017.5 1017.5 0.0
19/10:00pm 4.8 1.1 2.5 85 0.9 NW 11 15 6 8 1017.2 1017.2 0.0
19/09:30pm 5.2 1.5 2.6 83 1.1 WNW 11 13 6 7 1017.1 1017.1 0.0
19/09:00pm 6.7 2.7 3.1 78 1.5 WNW 13 17 7 9 1016.9 1016.9 0.0
19/08:30pm 6.6 2.7 3.2 79 1.4 WNW 13 17 7 9 1016.6 1016.6 0.0
19/08:00pm 5.7 1.6 2.4 79 1.3 NW 13 15 7 8 1016.3 1016.3 0.0
19/07:30pm 7.9 4.0 3.2 72 2.0 W 13 17 7 9 1015.9 1015.9 0.0
19/07:00pm 8.6 3.9 3.2 69 2.3 W 17 20 9 11 1015.5 1015.5 0.0
19/06:30pm 9.3 4.9 2.6 63 2.8 W 15 20 8 11 1015.2 1015.2 0.0
19/06:00pm 10.2 4.8 2.3 58 3.4 W 20 32 11 17 1014.9 1014.9 0.0
19/05:30pm 10.9 4.3 2.2 55 3.7 WSW 26 33 14 18 1014.4 1014.4 0.0
19/05:00pm 11.5 3.2 2.0 52 4.1 WSW 35 50 19 27 1014.0 1014.0 0.0
19/04:30pm 11.3 4.3 1.8 52 4.0 WSW 28 37 15 20 1013.5 1013.5 0.0
19/04:00pm 13.2 5.3 2.4 48 4.7 WSW 33 52 18 28 1013.3 1013.3 0.0
19/03:55pm 12.6 4.8 1.9 48 4.6 SW 32 52 17 28 1013.3 1013.3 0.0
19/03:30pm 11.6 2.3 2.9 55 3.8 SW 41 52 22 28 1013.0 1013.0 0.0
19/03:00pm 13.8 4.9 3.0 48 4.8 SW 39 48 21 26 1012.5 1012.5 0.0
19/02:30pm 15.5 5.7 0.1 35 6.6 WSW 41 56 22 30 1011.9 1011.9 0.0
19/02:02pm 15.2 5.8 0.2 36 6.4 SW 39 57 21 31 1011.6 1011.6 0.0
19/02:00pm 14.9 5.2 0.4 37 6.2 WSW 41 57 22 31 1011.6 1011.6 0.0
19/01:45pm 15.9 7.9 1.6 38 6.3 WSW 33 52 18 28 1011.3 1011.3 0.0
19/01:30pm 15.0 6.3 1.9 41 5.8 WSW 37 50 20 27 1011.2 1011.2 0.0
19/01:01pm 15.3 7.1 2.8 43 5.6 SW 35 54 19 29 1011.2 1011.2 0.0
19/01:00pm 15.1 6.8 2.3 42 5.7 SW 35 52 19 28 1011.2 1011.2 0.0
19/12:30pm 15.1 6.9 2.6 43 5.6 SW 35 57 19 31 1011.4 1011.4 0.0
19/12:15pm 13.8 6.8 1.8 44 5.2 WSW 28 46 15 25 1011.4 1011.4 0.0
19/12:00pm 14.4 6.2 2.9 46 5.2 WSW 35 46 19 25 1011.3 1011.3 0.0
19/11:30am 12.7 5.9 3.1 52 4.3 WSW 28 43 15 23 1011.2 1011.2 0.0
19/11:03am 14.7 6.9 2.6 44 5.4 WSW 33 52 18 28 1010.9 1010.9 0.0
19/11:00am 14.7 6.6 3.2 46 5.2 WSW 35 52 19 28 1010.8 1010.8 0.0
19/10:30am 13.4 5.4 3.8 52 4.3 W 35 43 19 23 1010.8 1010.8 0.0
19/10:00am 11.9 4.3 3.9 58 3.6 WSW 33 43 18 23 1010.8 1010.8 0.0
19/09:30am 12.4 4.8 5.6 63 3.2 WSW 35 48 19 26 1010.3 1010.3 0.0
19/09:16am 11.6 4.3 4.6 62 3.2 WSW 32 50 17 27 1010.5 1010.5 0.0
19/09:00am 11.4 5.0 5.3 66 2.8 WSW 28 41 15 22 1010.4 1010.4 1.2
19/08:30am 11.0 6.2 5.7 70 2.5 W 20 28 11 15 1010.3 1010.3 1.2
19/08:00am 9.7 6.4 6.2 79 1.6 WNW 13 24 7 13 1010.1 1010.1 1.2

Other Formats:

Comma delimited format used in spreadsheet applications
http://www.bom.gov.au/fwo/IDV60801/IDV60801.94912.axf

JavaScript Object Notation format (JSON) in row-major order
http://www.bom.gov.au/fwo/IDV60801/IDV60801.94912.json